createdAt,value
2024-03-09T00:02:38.143Z,33.53
2024-03-09T00:05:34.742Z,26.17
2024-03-09T00:08:39.038Z,29.25
2024-03-09T00:11:42.442Z,27.67
2024-03-09T00:14:41.156Z,22.87
2024-03-09T00:17:45.107Z,26.23
2024-03-09T00:20:51.227Z,29.55
2024-03-09T00:23:50.465Z,30.23
2024-03-09T00:26:45.762Z,27.00
2024-03-09T00:30:00.613Z,30.83
2024-03-09T00:33:52.678Z,30.83
2024-03-09T00:36:46.710Z,32.25
2024-03-09T00:39:47.914Z,31.20
2024-03-09T00:47:14.605Z,26.63
2024-03-09T00:55:37.079Z,30.77
2024-03-09T00:59:10.850Z,32.38
2024-03-09T01:02:27.622Z,30.75
2024-03-09T01:05:46.063Z,30.92
2024-03-09T01:09:11.818Z,28.83
2024-03-09T01:12:35.499Z,30.52
2024-03-09T01:15:54.086Z,32.72
2024-03-09T01:22:26.640Z,33.33
2024-03-09T01:25:27.133Z,32.45
2024-03-09T01:28:32.297Z,32.10
2024-03-09T01:35:36.581Z,29.92
2024-03-09T01:41:54.214Z,34.08
2024-03-09T01:44:48.332Z,31.90
2024-03-09T01:47:53.708Z,33.17
2024-03-09T01:50:51.668Z,34.22
2024-03-09T01:53:48.490Z,36.97
2024-03-09T01:57:02.360Z,32.42
2024-03-09T02:03:10.148Z,34.10
2024-03-09T02:06:15.208Z,37.72
2024-03-09T02:09:12.141Z,36.42
2024-03-09T02:12:09.917Z,33.30
2024-03-09T02:15:21.069Z,36.85
2024-03-09T02:18:27.166Z,34.25
2024-03-09T02:21:24.204Z,36.38
2024-03-09T02:24:28.014Z,36.03
2024-03-09T02:30:42.883Z,32.80
2024-03-09T02:34:06.396Z,37.75
2024-03-09T02:37:20.487Z,36.53
2024-03-09T02:43:17.204Z,34.97
2024-03-09T02:46:14.649Z,33.47
2024-03-09T02:49:14.662Z,38.13
2024-03-09T02:52:41.004Z,42.78
2024-03-09T02:55:28.834Z,35.20
2024-03-09T03:05:21.056Z,37.40
2024-03-09T03:08:22.388Z,35.35
2024-03-09T03:11:13.328Z,36.08
2024-03-09T03:14:12.480Z,35.67
2024-03-09T03:17:16.611Z,34.50
2024-03-09T03:26:46.154Z,35.95
2024-03-09T03:29:40.760Z,37.47
2024-03-09T03:36:07.846Z,36.63
2024-03-09T03:39:32.767Z,37.65
2024-03-09T03:43:01.399Z,36.83
2024-03-09T03:46:06.763Z,37.08
2024-03-09T03:48:54.614Z,37.33
2024-03-09T03:55:51.355Z,37.67
2024-03-09T03:59:02.973Z,34.50
2024-03-09T04:01:56.858Z,39.17
2024-03-09T04:07:50.998Z,34.35
2024-03-09T04:11:11.568Z,34.83
2024-03-09T04:17:51.136Z,37.50
2024-03-09T04:20:53.360Z,36.38
2024-03-09T04:24:35.910Z,44.42
2024-03-09T04:27:26.714Z,37.70
2024-03-09T04:30:34.352Z,35.35
2024-03-09T04:33:41.959Z,35.80
2024-03-09T04:36:36.756Z,40.13
2024-03-09T04:39:51.475Z,40.75
2024-03-09T04:43:04.039Z,39.58
2024-03-09T04:46:05.688Z,37.65
2024-03-09T04:52:24.190Z,42.17
2024-03-09T04:55:37.464Z,33.90
2024-03-09T05:03:04.597Z,39.53
2024-03-09T05:05:40.806Z,42.00
2024-03-09T05:08:41.153Z,36.40
2024-03-09T05:15:55.992Z,34.10
2024-03-09T05:18:57.590Z,32.95
2024-03-09T05:28:49.830Z,36.97
2024-03-09T05:32:00.483Z,37.25
2024-03-09T05:35:03.475Z,37.10
2024-03-09T05:38:11.524Z,38.70
2024-03-09T05:41:24.757Z,34.95
2024-03-09T05:45:22.706Z,37.05
2024-03-09T05:48:30.666Z,33.55
2024-03-09T05:57:18.337Z,34.92
2024-03-09T06:00:21.212Z,37.05
2024-03-09T06:03:16.648Z,32.78
2024-03-09T06:06:35.113Z,36.53
2024-03-09T06:09:57.937Z,37.50
2024-03-09T06:16:36.861Z,37.28
2024-03-09T06:19:13.903Z,35.17
2024-03-09T06:19:27.877Z,35.70
2024-03-09T06:22:48.448Z,31.27
2024-03-09T06:28:48.706Z,37.20
2024-03-09T06:31:39.547Z,29.35
2024-03-09T06:34:29.707Z,31.23
2024-03-09T06:40:55.416Z,29.27
2024-03-09T06:44:16.167Z,29.25
2024-03-09T06:47:40.066Z,31.48
2024-03-09T06:50:33.885Z,30.55
2024-03-09T06:53:26.774Z,29.05
2024-03-09T06:56:19.535Z,30.00
2024-03-09T06:59:15.622Z,27.23
2024-03-09T07:02:24.637Z,31.35
2024-03-09T07:05:39.997Z,26.15
2024-03-09T07:09:13.213Z,28.02
2024-03-09T07:12:19.219Z,29.58
2024-03-09T07:15:22.022Z,27.33
2024-03-09T07:18:17.394Z,27.10
2024-03-09T07:21:08.900Z,24.75
2024-03-09T07:24:07.981Z,25.50
2024-03-09T07:27:08.471Z,24.75
2024-03-09T07:30:04.742Z,22.83
2024-03-09T07:33:05.386Z,23.38
2024-03-09T07:36:17.676Z,23.25
2024-03-09T07:43:02.154Z,22.90
2024-03-09T07:46:19.839Z,27.00
2024-03-09T07:53:19.419Z,25.10
2024-03-09T07:59:40.149Z,23.05
2024-03-09T08:02:33.905Z,28.55
2024-03-09T08:05:35.845Z,22.08
2024-03-09T08:08:33.090Z,25.38
2024-03-09T08:14:43.494Z,21.17
2024-03-09T08:17:38.920Z,21.25
2024-03-09T08:20:50.547Z,21.83
2024-03-09T08:23:46.893Z,21.75
2024-03-09T08:26:58.286Z,20.67
2024-03-09T08:33:18.759Z,25.63
2024-03-09T08:36:49.017Z,24.70
2024-03-09T08:39:48.522Z,23.35
2024-03-09T08:42:44.843Z,23.05
2024-03-09T08:51:52.962Z,21.90
2024-03-09T08:57:53.009Z,24.55
2024-03-09T09:04:05.916Z,20.85
2024-03-09T09:10:41.344Z,23.95
2024-03-09T09:21:35.892Z,20.95
2024-03-09T10:01:08.877Z,19.23
2024-03-09T10:14:51.391Z,20.05
2024-03-09T10:17:58.733Z,19.88
2024-03-09T10:21:04.201Z,20.70
2024-03-09T10:24:17.660Z,20.70
2024-03-09T10:30:39.442Z,17.40
2024-03-09T10:33:55.095Z,18.15
2024-03-09T10:37:44.622Z,20.02
2024-03-09T10:41:35.963Z,17.35
2024-03-09T10:45:06.323Z,16.83
2024-03-09T10:48:39.186Z,19.75
2024-03-09T10:52:09.316Z,21.85
2024-03-09T10:56:05.424Z,18.73
2024-03-09T11:02:18.817Z,18.35
2024-03-09T11:05:27.256Z,17.67
2024-03-09T11:08:44.530Z,18.80
2024-03-09T11:15:31.830Z,19.40
2024-03-09T11:36:15.386Z,18.60
2024-03-09T11:46:33.183Z,18.98
2024-03-09T11:49:42.969Z,17.00
2024-03-09T11:55:43.251Z,17.48
2024-03-09T11:58:51.335Z,18.30
2024-03-09T12:01:59.645Z,17.70
2024-03-09T12:05:24.198Z,20.85
2024-03-09T12:08:25.468Z,18.63
2024-03-09T12:11:38.488Z,17.08
2024-03-09T12:14:58.205Z,19.83
2024-03-09T12:17:56.822Z,19.63
2024-03-09T12:20:59.845Z,18.02
2024-03-09T12:24:06.254Z,18.05
2024-03-09T12:26:57.212Z,16.67
2024-03-09T12:29:48.478Z,18.40
2024-03-09T12:32:45.494Z,17.13
2024-03-09T12:35:37.258Z,17.30
2024-03-09T12:38:28.879Z,16.75
2024-03-09T12:41:31.769Z,16.20
2024-03-09T12:44:22.729Z,17.00
2024-03-09T12:47:19.453Z,17.98
2024-03-09T12:50:34.005Z,18.08
2024-03-09T12:53:31.937Z,18.80
2024-03-09T12:56:34.172Z,17.80
2024-03-09T12:59:30.584Z,17.73
2024-03-09T13:02:36.686Z,17.40
2024-03-09T13:05:34.774Z,17.20
2024-03-09T13:08:27.695Z,16.00
2024-03-09T13:11:22.982Z,19.25
2024-03-09T13:14:29.321Z,18.35
2024-03-09T13:17:49.415Z,19.60
2024-03-09T13:20:54.747Z,18.40
2024-03-09T13:23:58.762Z,16.45
2024-03-09T13:26:49.038Z,16.15
2024-03-09T13:29:39.161Z,15.65
2024-03-09T13:32:33.688Z,16.92
2024-03-09T13:35:26.935Z,16.40
2024-03-09T13:38:16.143Z,16.40
2024-03-09T13:41:13.226Z,16.67
2024-03-09T13:44:03.943Z,15.73
2024-03-09T13:47:01.216Z,18.95
2024-03-09T13:49:50.768Z,17.35
2024-03-09T13:52:41.408Z,18.20
2024-03-09T13:55:39.807Z,17.17
2024-03-09T13:58:37.050Z,18.55
2024-03-09T14:01:32.750Z,17.17
2024-03-09T14:04:26.757Z,16.98
2024-03-09T14:07:28.469Z,16.83
2024-03-09T14:10:20.453Z,18.10
2024-03-09T14:13:12.039Z,17.27
2024-03-09T14:16:08.647Z,19.85
2024-03-09T14:18:56.604Z,18.33
2024-03-09T14:21:47.171Z,17.20
2024-03-09T14:24:37.797Z,21.02
2024-03-09T14:27:25.689Z,19.15
2024-03-09T14:30:14.230Z,18.85
2024-03-09T14:33:08.659Z,17.20
2024-03-09T14:35:58.903Z,18.73
2024-03-09T14:38:49.628Z,16.35
2024-03-09T14:41:39.916Z,20.17
2024-03-09T14:44:30.471Z,17.17
2024-03-09T14:47:20.460Z,16.00
2024-03-09T14:50:10.239Z,19.13
2024-03-09T14:53:01.777Z,15.70
2024-03-09T14:55:53.810Z,17.52
2024-03-09T14:59:27.596Z,16.27
2024-03-09T15:06:51.153Z,17.65
2024-03-09T15:10:15.601Z,18.35
2024-03-09T15:13:30.085Z,16.88
2024-03-09T15:16:54.233Z,17.73
2024-03-09T15:48:01.889Z,19.63
2024-03-09T15:51:30.342Z,18.77
2024-03-09T15:54:52.824Z,18.42
2024-03-09T16:01:47.343Z,24.95
2024-03-09T16:04:44.279Z,25.02
2024-03-09T16:07:56.541Z,29.70
2024-03-09T16:11:12.969Z,17.08
2024-03-09T16:14:20.482Z,18.85
2024-03-09T16:17:57.179Z,18.73
2024-03-09T16:24:01.318Z,16.65
2024-03-09T16:27:24.632Z,18.33
2024-03-09T16:30:34.070Z,21.92
2024-03-09T16:33:55.054Z,23.80
2024-03-09T16:37:41.066Z,19.90
2024-03-09T16:40:53.570Z,19.25
2024-03-09T16:44:13.554Z,18.55
2024-03-09T16:55:55.118Z,20.42
2024-03-09T17:10:22.329Z,17.42
2024-03-09T17:16:29.478Z,18.58
2024-03-09T17:28:05.168Z,17.13
2024-03-09T17:34:30.857Z,15.18
2024-03-09T17:40:46.101Z,15.50
